sensor_id;sensor_type;location;lat;lon;timestamp;P1;durP1;ratioP1;P2;durP2;ratioP2
30147;SDS011;16960;49.404;8.248;2023-04-25T00:02:07;1.30;;;1.00;;
30147;SDS011;16960;49.404;8.248;2023-04-25T00:04:35;1.70;;;1.03;;
30147;SDS011;16960;49.404;8.248;2023-04-25T00:07:02;2.73;;;0.90;;
30147;SDS011;16960;49.404;8.248;2023-04-25T00:09:30;2.33;;;1.00;;
30147;SDS011;16960;49.404;8.248;2023-04-25T00:11:58;1.10;;;0.70;;
30147;SDS011;16960;49.404;8.248;2023-04-25T00:14:26;0.93;;;0.87;;
30147;SDS011;16960;49.404;8.248;2023-04-25T00:16:53;1.10;;;0.90;;
30147;SDS011;16960;49.404;8.248;2023-04-25T00:19:21;1.30;;;1.20;;
30147;SDS011;16960;49.404;8.248;2023-04-25T00:21:49;1.00;;;0.90;;
30147;SDS011;16960;49.404;8.248;2023-04-25T00:24:16;1.10;;;1.00;;
30147;SDS011;16960;49.404;8.248;2023-04-25T00:26:43;1.00;;;0.90;;
30147;SDS011;16960;49.404;8.248;2023-04-25T00:29:10;1.07;;;0.97;;
30147;SDS011;16960;49.404;8.248;2023-04-25T00:31:37;1.00;;;1.00;;
30147;SDS011;16960;49.404;8.248;2023-04-25T00:34:04;1.40;;;1.30;;
30147;SDS011;16960;49.404;8.248;2023-04-25T00:36:32;2.27;;;1.10;;
30147;SDS011;16960;49.404;8.248;2023-04-25T00:39:00;1.87;;;1.10;;
30147;SDS011;16960;49.404;8.248;2023-04-25T00:41:27;1.00;;;1.00;;
30147;SDS011;16960;49.404;8.248;2023-04-25T00:43:55;1.10;;;1.00;;
30147;SDS011;16960;49.404;8.248;2023-04-25T00:46:22;1.20;;;1.10;;
30147;SDS011;16960;49.404;8.248;2023-04-25T00:48:49;0.93;;;0.83;;
30147;SDS011;16960;49.404;8.248;2023-04-25T00:51:20;1.10;;;1.00;;
30147;SDS011;16960;49.404;8.248;2023-04-25T00:53:47;1.20;;;1.10;;
30147;SDS011;16960;49.404;8.248;2023-04-25T00:56:17;1.13;;;1.03;;
30147;SDS011;16960;49.404;8.248;2023-04-25T00:58:44;0.90;;;0.90;;
30147;SDS011;16960;49.404;8.248;2023-04-25T01:01:11;1.23;;;1.13;;
30147;SDS011;16960;49.404;8.248;2023-04-25T01:03:39;1.53;;;0.97;;
30147;SDS011;16960;49.404;8.248;2023-04-25T01:06:07;0.70;;;0.70;;
30147;SDS011;16960;49.404;8.248;2023-04-25T01:08:35;0.87;;;0.70;;
30147;SDS011;16960;49.404;8.248;2023-04-25T01:11:03;1.47;;;1.10;;
30147;SDS011;16960;49.404;8.248;2023-04-25T01:13:32;1.17;;;1.07;;
30147;SDS011;16960;49.404;8.248;2023-04-25T01:15:59;1.07;;;1.00;;
30147;SDS011;16960;49.404;8.248;2023-04-25T01:18:26;1.03;;;0.93;;
30147;SDS011;16960;49.404;8.248;2023-04-25T01:20:53;1.50;;;0.90;;
30147;SDS011;16960;49.404;8.248;2023-04-25T01:23:23;0.80;;;0.80;;
30147;SDS011;16960;49.404;8.248;2023-04-25T01:25:50;1.13;;;1.10;;
30147;SDS011;16960;49.404;8.248;2023-04-25T01:28:17;0.90;;;0.90;;
30147;SDS011;16960;49.404;8.248;2023-04-25T01:30:45;0.90;;;0.90;;
30147;SDS011;16960;49.404;8.248;2023-04-25T01:33:13;1.30;;;1.20;;
30147;SDS011;16960;49.404;8.248;2023-04-25T01:35:41;1.13;;;1.03;;
30147;SDS011;16960;49.404;8.248;2023-04-25T01:38:08;1.07;;;1.00;;
30147;SDS011;16960;49.404;8.248;2023-04-25T01:40:38;1.57;;;1.47;;
30147;SDS011;16960;49.404;8.248;2023-04-25T01:43:06;1.70;;;1.60;;
30147;SDS011;16960;49.404;8.248;2023-04-25T01:45:36;1.40;;;1.30;;
30147;SDS011;16960;49.404;8.248;2023-04-25T01:48:05;1.20;;;1.10;;
30147;SDS011;16960;49.404;8.248;2023-04-25T01:50:32;1.47;;;1.37;;
30147;SDS011;16960;49.404;8.248;2023-04-25T01:52:59;1.20;;;1.10;;
30147;SDS011;16960;49.404;8.248;2023-04-25T01:55:26;1.00;;;1.00;;
30147;SDS011;16960;49.404;8.248;2023-04-25T01:57:55;1.43;;;1.10;;
30147;SDS011;16960;49.404;8.248;2023-04-25T02:00:22;1.10;;;1.00;;
30147;SDS011;16960;49.404;8.248;2023-04-25T02:02:49;1.20;;;1.00;;
30147;SDS011;16960;49.404;8.248;2023-04-25T02:05:18;1.07;;;1.00;;
30147;SDS011;16960;49.404;8.248;2023-04-25T02:07:46;1.23;;;1.13;;
30147;SDS011;16960;49.404;8.248;2023-04-25T02:10:13;1.53;;;1.43;;
30147;SDS011;16960;49.404;8.248;2023-04-25T02:12:40;1.23;;;1.13;;
30147;SDS011;16960;49.404;8.248;2023-04-25T02:15:09;1.13;;;1.03;;
30147;SDS011;16960;49.404;8.248;2023-04-25T02:17:36;1.63;;;1.10;;
30147;SDS011;16960;49.404;8.248;2023-04-25T02:20:05;1.43;;;1.33;;
30147;SDS011;16960;49.404;8.248;2023-04-25T02:22:32;1.43;;;1.00;;
30147;SDS011;16960;49.404;8.248;2023-04-25T02:25:00;1.30;;;1.03;;
30147;SDS011;16960;49.404;8.248;2023-04-25T02:27:29;1.03;;;1.03;;
30147;SDS011;16960;49.404;8.248;2023-04-25T02:29:56;0.90;;;0.90;;
30147;SDS011;16960;49.404;8.248;2023-04-25T02:32:24;1.03;;;1.00;;
30147;SDS011;16960;49.404;8.248;2023-04-25T02:34:52;1.40;;;1.03;;
30147;SDS011;16960;49.404;8.248;2023-04-25T02:37:19;1.40;;;1.10;;
30147;SDS011;16960;49.404;8.248;2023-04-25T02:39:45;1.23;;;1.13;;
30147;SDS011;16960;49.404;8.248;2023-04-25T02:42:12;1.13;;;1.10;;
30147;SDS011;16960;49.404;8.248;2023-04-25T02:44:39;1.57;;;0.90;;
30147;SDS011;16960;49.404;8.248;2023-04-25T02:47:06;1.27;;;1.17;;
30147;SDS011;16960;49.404;8.248;2023-04-25T02:49:35;1.20;;;1.10;;
30147;SDS011;16960;49.404;8.248;2023-04-25T02:52:01;1.47;;;1.37;;
30147;SDS011;16960;49.404;8.248;2023-04-25T02:54:28;0.73;;;0.73;;
30147;SDS011;16960;49.404;8.248;2023-04-25T02:56:56;1.10;;;1.10;;
30147;SDS011;16960;49.404;8.248;2023-04-25T02:59:22;1.43;;;1.23;;
30147;SDS011;16960;49.404;8.248;2023-04-25T03:01:49;1.47;;;1.37;;
30147;SDS011;16960;49.404;8.248;2023-04-25T03:04:16;1.40;;;1.30;;
30147;SDS011;16960;49.404;8.248;2023-04-25T03:06:45;1.17;;;1.07;;
30147;SDS011;16960;49.404;8.248;2023-04-25T03:09:12;1.20;;;1.10;;
30147;SDS011;16960;49.404;8.248;2023-04-25T03:11:39;1.40;;;1.30;;
30147;SDS011;16960;49.404;8.248;2023-04-25T03:14:06;1.23;;;1.13;;
30147;SDS011;16960;49.404;8.248;2023-04-25T03:16:33;1.27;;;1.17;;
30147;SDS011;16960;49.404;8.248;2023-04-25T03:19:00;1.10;;;1.00;;
30147;SDS011;16960;49.404;8.248;2023-04-25T03:21:27;1.23;;;1.13;;
30147;SDS011;16960;49.404;8.248;2023-04-25T03:23:55;1.60;;;1.20;;
30147;SDS011;16960;49.404;8.248;2023-04-25T03:26:22;1.20;;;1.10;;
30147;SDS011;16960;49.404;8.248;2023-04-25T03:28:49;1.17;;;1.17;;
30147;SDS011;16960;49.404;8.248;2023-04-25T03:31:16;1.10;;;1.10;;
30147;SDS011;16960;49.404;8.248;2023-04-25T03:33:43;1.03;;;1.00;;
30147;SDS011;16960;49.404;8.248;2023-04-25T03:36:10;1.40;;;1.20;;
30147;SDS011;16960;49.404;8.248;2023-04-25T03:38:37;1.20;;;1.10;;
30147;SDS011;16960;49.404;8.248;2023-04-25T03:41:05;0.90;;;0.90;;
30147;SDS011;16960;49.404;8.248;2023-04-25T03:43:32;0.97;;;0.97;;
30147;SDS011;16960;49.404;8.248;2023-04-25T03:45:59;1.40;;;1.23;;
30147;SDS011;16960;49.404;8.248;2023-04-25T03:48:26;1.07;;;1.00;;
30147;SDS011;16960;49.404;8.248;2023-04-25T03:50:53;1.30;;;1.20;;
30147;SDS011;16960;49.404;8.248;2023-04-25T03:53:20;1.40;;;1.30;;
30147;SDS011;16960;49.404;8.248;2023-04-25T03:55:47;1.13;;;1.03;;
30147;SDS011;16960;49.404;8.248;2023-04-25T03:58:16;0.93;;;0.90;;
30147;SDS011;16960;49.404;8.248;2023-04-25T04:00:42;0.97;;;0.90;;
30147;SDS011;16960;49.404;8.248;2023-04-25T04:03:09;1.23;;;1.13;;
30147;SDS011;16960;49.404;8.248;2023-04-25T04:05:37;0.90;;;0.90;;
30147;SDS011;16960;49.404;8.248;2023-04-25T04:08:05;1.13;;;1.03;;
30147;SDS011;16960;49.404;8.248;2023-04-25T04:10:32;1.40;;;1.30;;
30147;SDS011;16960;49.404;8.248;2023-04-25T04:12:59;1.20;;;1.10;;
30147;SDS011;16960;49.404;8.248;2023-04-25T04:15:28;1.27;;;1.17;;
30147;SDS011;16960;49.404;8.248;2023-04-25T04:17:57;0.93;;;0.83;;
30147;SDS011;16960;49.404;8.248;2023-04-25T04:20:27;1.20;;;1.10;;
30147;SDS011;16960;49.404;8.248;2023-04-25T04:22:54;1.10;;;1.10;;
30147;SDS011;16960;49.404;8.248;2023-04-25T04:25:21;0.93;;;0.93;;
30147;SDS011;16960;49.404;8.248;2023-04-25T04:27:49;0.90;;;0.90;;
30147;SDS011;16960;49.404;8.248;2023-04-25T04:30:19;1.10;;;1.00;;
30147;SDS011;16960;49.404;8.248;2023-04-25T04:32:50;2.10;;;1.50;;
30147;SDS011;16960;49.404;8.248;2023-04-25T04:35:17;0.93;;;0.93;;
30147;SDS011;16960;49.404;8.248;2023-04-25T04:37:44;1.43;;;0.80;;
30147;SDS011;16960;49.404;8.248;2023-04-25T04:40:13;1.00;;;1.00;;
30147;SDS011;16960;49.404;8.248;2023-04-25T04:42:41;1.20;;;1.00;;
30147;SDS011;16960;49.404;8.248;2023-04-25T04:45:08;1.30;;;1.20;;
30147;SDS011;16960;49.404;8.248;2023-04-25T04:47:36;0.70;;;0.70;;
30147;SDS011;16960;49.404;8.248;2023-04-25T04:50:06;1.10;;;1.10;;
30147;SDS011;16960;49.404;8.248;2023-04-25T04:52:34;3.57;;;0.90;;
30147;SDS011;16960;49.404;8.248;2023-04-25T04:55:02;0.90;;;0.90;;
30147;SDS011;16960;49.404;8.248;2023-04-25T04:57:29;0.70;;;0.70;;
30147;SDS011;16960;49.404;8.248;2023-04-25T04:59:57;1.10;;;1.00;;
30147;SDS011;16960;49.404;8.248;2023-04-25T05:02:25;0.97;;;0.90;;
30147;SDS011;16960;49.404;8.248;2023-04-25T05:04:53;1.17;;;1.07;;
30147;SDS011;16960;49.404;8.248;2023-04-25T05:07:21;1.10;;;0.93;;
30147;SDS011;16960;49.404;8.248;2023-04-25T05:09:48;1.30;;;1.20;;
30147;SDS011;16960;49.404;8.248;2023-04-25T05:12:15;0.97;;;0.90;;
30147;SDS011;16960;49.404;8.248;2023-04-25T05:14:42;1.00;;;0.90;;
30147;SDS011;16960;49.404;8.248;2023-04-25T05:17:08;1.10;;;0.90;;
30147;SDS011;16960;49.404;8.248;2023-04-25T05:19:35;1.00;;;0.90;;
30147;SDS011;16960;49.404;8.248;2023-04-25T05:22:03;0.97;;;0.97;;
30147;SDS011;16960;49.404;8.248;2023-04-25T05:24:31;0.80;;;0.80;;
30147;SDS011;16960;49.404;8.248;2023-04-25T05:26:58;2.23;;;0.80;;
30147;SDS011;16960;49.404;8.248;2023-04-25T05:29:25;1.20;;;0.90;;
30147;SDS011;16960;49.404;8.248;2023-04-25T05:31:52;1.60;;;1.10;;
30147;SDS011;16960;49.404;8.248;2023-04-25T05:34:19;2.53;;;1.00;;
30147;SDS011;16960;49.404;8.248;2023-04-25T05:36:45;1.10;;;1.00;;
30147;SDS011;16960;49.404;8.248;2023-04-25T05:39:14;1.27;;;1.10;;
30147;SDS011;16960;49.404;8.248;2023-04-25T05:41:43;0.70;;;0.70;;
30147;SDS011;16960;49.404;8.248;2023-04-25T05:44:10;2.87;;;0.87;;
30147;SDS011;16960;49.404;8.248;2023-04-25T05:46:37;1.10;;;1.00;;
30147;SDS011;16960;49.404;8.248;2023-04-25T05:49:03;3.90;;;1.13;;
30147;SDS011;16960;49.404;8.248;2023-04-25T05:51:30;1.47;;;1.30;;
30147;SDS011;16960;49.404;8.248;2023-04-25T05:53:57;1.47;;;1.23;;
30147;SDS011;16960;49.404;8.248;2023-04-25T05:56:24;1.37;;;1.13;;
30147;SDS011;16960;49.404;8.248;2023-04-25T05:58:53;1.60;;;1.20;;
30147;SDS011;16960;49.404;8.248;2023-04-25T06:01:20;1.70;;;1.30;;
30147;SDS011;16960;49.404;8.248;2023-04-25T06:03:47;2.13;;;1.40;;
30147;SDS011;16960;49.404;8.248;2023-04-25T06:06:14;1.23;;;1.13;;
30147;SDS011;16960;49.404;8.248;2023-04-25T06:08:41;8.17;;;1.60;;
30147;SDS011;16960;49.404;8.248;2023-04-25T06:11:08;1.97;;;1.30;;
30147;SDS011;16960;49.404;8.248;2023-04-25T06:13:35;2.47;;;1.27;;
30147;SDS011;16960;49.404;8.248;2023-04-25T06:16:04;1.63;;;1.53;;
30147;SDS011;16960;49.404;8.248;2023-04-25T06:18:31;2.33;;;1.43;;
30147;SDS011;16960;49.404;8.248;2023-04-25T06:20:58;1.03;;;0.93;;
30147;SDS011;16960;49.404;8.248;2023-04-25T06:23:25;1.80;;;1.60;;
30147;SDS011;16960;49.404;8.248;2023-04-25T06:25:52;1.57;;;1.37;;
30147;SDS011;16960;49.404;8.248;2023-04-25T06:28:18;1.27;;;1.17;;
30147;SDS011;16960;49.404;8.248;2023-04-25T06:30:47;3.47;;;1.40;;
30147;SDS011;16960;49.404;8.248;2023-04-25T06:33:15;1.70;;;1.60;;
30147;SDS011;16960;49.404;8.248;2023-04-25T06:35:42;4.23;;;1.60;;
30147;SDS011;16960;49.404;8.248;2023-04-25T06:38:09;1.70;;;1.60;;
30147;SDS011;16960;49.404;8.248;2023-04-25T06:40:36;1.33;;;1.23;;
30147;SDS011;16960;49.404;8.248;2023-04-25T06:43:03;1.43;;;1.30;;
30147;SDS011;16960;49.404;8.248;2023-04-25T06:45:30;1.43;;;1.33;;
30147;SDS011;16960;49.404;8.248;2023-04-25T06:47:57;2.43;;;1.70;;
30147;SDS011;16960;49.404;8.248;2023-04-25T06:50:25;1.90;;;1.33;;
30147;SDS011;16960;49.404;8.248;2023-04-25T06:52:52;5.03;;;1.50;;
30147;SDS011;16960;49.404;8.248;2023-04-25T06:55:19;3.00;;;2.03;;
30147;SDS011;16960;49.404;8.248;2023-04-25T06:57:46;1.63;;;1.53;;
30147;SDS011;16960;49.404;8.248;2023-04-25T07:00:13;1.63;;;1.53;;
30147;SDS011;16960;49.404;8.248;2023-04-25T07:02:41;5.13;;;2.33;;
30147;SDS011;16960;49.404;8.248;2023-04-25T07:05:08;2.10;;;1.83;;
30147;SDS011;16960;49.404;8.248;2023-04-25T07:07:37;2.10;;;2.00;;
30147;SDS011;16960;49.404;8.248;2023-04-25T07:10:04;2.87;;;1.60;;
30147;SDS011;16960;49.404;8.248;2023-04-25T07:12:31;1.97;;;1.77;;
30147;SDS011;16960;49.404;8.248;2023-04-25T07:14:58;2.77;;;2.03;;
30147;SDS011;16960;49.404;8.248;2023-04-25T07:17:30;2.10;;;1.90;;
30147;SDS011;16960;49.404;8.248;2023-04-25T07:19:58;1.87;;;1.70;;
30147;SDS011;16960;49.404;8.248;2023-04-25T07:22:25;2.50;;;1.73;;
30147;SDS011;16960;49.404;8.248;2023-04-25T07:24:53;1.90;;;1.80;;
30147;SDS011;16960;49.404;8.248;2023-04-25T07:27:21;3.43;;;2.20;;
30147;SDS011;16960;49.404;8.248;2023-04-25T07:29:48;2.87;;;2.30;;
30147;SDS011;16960;49.404;8.248;2023-04-25T07:32:15;3.50;;;2.57;;
30147;SDS011;16960;49.404;8.248;2023-04-25T07:34:41;2.50;;;2.30;;
30147;SDS011;16960;49.404;8.248;2023-04-25T07:37:08;4.43;;;2.60;;
30147;SDS011;16960;49.404;8.248;2023-04-25T07:39:36;2.57;;;2.33;;
30147;SDS011;16960;49.404;8.248;2023-04-25T07:42:04;2.77;;;2.57;;
30147;SDS011;16960;49.404;8.248;2023-04-25T07:44:33;5.13;;;2.40;;
30147;SDS011;16960;49.404;8.248;2023-04-25T07:47:04;3.43;;;2.40;;
30147;SDS011;16960;49.404;8.248;2023-04-25T07:49:32;2.33;;;2.13;;
30147;SDS011;16960;49.404;8.248;2023-04-25T07:51:59;3.07;;;2.30;;
30147;SDS011;16960;49.404;8.248;2023-04-25T07:54:26;3.40;;;2.73;;
30147;SDS011;16960;49.404;8.248;2023-04-25T07:56:54;3.40;;;2.60;;
30147;SDS011;16960;49.404;8.248;2023-04-25T07:59:22;2.63;;;2.23;;
30147;SDS011;16960;49.404;8.248;2023-04-25T08:01:49;2.90;;;2.43;;
30147;SDS011;16960;49.404;8.248;2023-04-25T08:04:17;4.27;;;2.20;;
30147;SDS011;16960;49.404;8.248;2023-04-25T08:06:44;4.10;;;2.70;;
30147;SDS011;16960;49.404;8.248;2023-04-25T08:09:11;4.73;;;2.40;;
30147;SDS011;16960;49.404;8.248;2023-04-25T08:11:38;2.90;;;2.20;;
30147;SDS011;16960;49.404;8.248;2023-04-25T08:14:05;2.20;;;2.00;;
30147;SDS011;16960;49.404;8.248;2023-04-25T08:16:34;2.73;;;2.43;;
30147;SDS011;16960;49.404;8.248;2023-04-25T08:19:01;3.70;;;2.37;;
30147;SDS011;16960;49.404;8.248;2023-04-25T08:21:28;3.67;;;2.00;;
30147;SDS011;16960;49.404;8.248;2023-04-25T08:23:56;3.70;;;2.27;;
30147;SDS011;16960;49.404;8.248;2023-04-25T08:26:23;2.10;;;1.90;;
30147;SDS011;16960;49.404;8.248;2023-04-25T08:28:50;4.50;;;2.40;;
30147;SDS011;16960;49.404;8.248;2023-04-25T08:31:17;2.60;;;2.17;;
30147;SDS011;16960;49.404;8.248;2023-04-25T08:33:46;2.20;;;2.00;;
30147;SDS011;16960;49.404;8.248;2023-04-25T08:36:14;3.63;;;2.10;;
30147;SDS011;16960;49.404;8.248;2023-04-25T08:38:42;2.67;;;1.83;;
30147;SDS011;16960;49.404;8.248;2023-04-25T08:41:09;2.60;;;2.20;;
30147;SDS011;16960;49.404;8.248;2023-04-25T08:43:38;3.77;;;2.10;;
30147;SDS011;16960;49.404;8.248;2023-04-25T08:46:09;4.37;;;2.00;;
30147;SDS011;16960;49.404;8.248;2023-04-25T08:48:38;2.40;;;2.10;;
30147;SDS011;16960;49.404;8.248;2023-04-25T08:51:08;2.77;;;2.40;;
30147;SDS011;16960;49.404;8.248;2023-04-25T08:53:40;5.17;;;1.80;;
30147;SDS011;16960;49.404;8.248;2023-04-25T08:56:08;4.17;;;1.87;;
30147;SDS011;16960;49.404;8.248;2023-04-25T08:58:39;3.37;;;1.87;;
30147;SDS011;16960;49.404;8.248;2023-04-25T09:01:06;4.30;;;2.37;;
30147;SDS011;16960;49.404;8.248;2023-04-25T09:03:34;2.97;;;2.10;;
30147;SDS011;16960;49.404;8.248;2023-04-25T09:06:02;2.13;;;1.83;;
30147;SDS011;16960;49.404;8.248;2023-04-25T09:08:31;5.20;;;2.10;;
30147;SDS011;16960;49.404;8.248;2023-04-25T09:10:58;3.13;;;2.00;;
30147;SDS011;16960;49.404;8.248;2023-04-25T09:13:26;2.80;;;2.03;;
30147;SDS011;16960;49.404;8.248;2023-04-25T09:15:55;3.30;;;1.80;;
30147;SDS011;16960;49.404;8.248;2023-04-25T09:18:24;1.77;;;1.67;;
30147;SDS011;16960;49.404;8.248;2023-04-25T09:20:52;4.63;;;2.60;;
30147;SDS011;16960;49.404;8.248;2023-04-25T09:23:20;2.37;;;1.83;;
30147;SDS011;16960;49.404;8.248;2023-04-25T09:25:50;2.07;;;1.90;;
30147;SDS011;16960;49.404;8.248;2023-04-25T09:28:22;4.23;;;2.03;;
30147;SDS011;16960;49.404;8.248;2023-04-25T09:30:54;3.17;;;1.77;;
30147;SDS011;16960;49.404;8.248;2023-04-25T09:33:26;2.00;;;1.80;;
30147;SDS011;16960;49.404;8.248;2023-04-25T09:35:56;1.73;;;1.60;;
30147;SDS011;16960;49.404;8.248;2023-04-25T09:38:29;1.80;;;1.70;;
30147;SDS011;16960;49.404;8.248;2023-04-25T09:40:58;1.57;;;1.47;;
30147;SDS011;16960;49.404;8.248;2023-04-25T09:43:26;2.73;;;1.73;;
30147;SDS011;16960;49.404;8.248;2023-04-25T09:45:54;1.97;;;1.87;;
30147;SDS011;16960;49.404;8.248;2023-04-25T09:48:24;3.40;;;1.70;;
30147;SDS011;16960;49.404;8.248;2023-04-25T09:51:05;2.37;;;1.43;;
30147;SDS011;16960;49.404;8.248;2023-04-25T09:53:33;10.23;;;2.17;;
30147;SDS011;16960;49.404;8.248;2023-04-25T09:56:04;1.60;;;1.50;;
30147;SDS011;16960;49.404;8.248;2023-04-25T09:58:32;2.10;;;1.70;;
30147;SDS011;16960;49.404;8.248;2023-04-25T10:01:01;2.37;;;1.87;;
30147;SDS011;16960;49.404;8.248;2023-04-25T10:03:29;2.50;;;1.50;;
30147;SDS011;16960;49.404;8.248;2023-04-25T10:05:57;2.13;;;1.43;;
30147;SDS011;16960;49.404;8.248;2023-04-25T10:08:27;1.80;;;1.57;;
30147;SDS011;16960;49.404;8.248;2023-04-25T10:10:59;1.60;;;1.40;;
30147;SDS011;16960;49.404;8.248;2023-04-25T10:13:29;1.87;;;1.77;;
30147;SDS011;16960;49.404;8.248;2023-04-25T10:15:58;2.03;;;1.83;;
30147;SDS011;16960;49.404;8.248;2023-04-25T10:18:26;1.70;;;1.47;;
30147;SDS011;16960;49.404;8.248;2023-04-25T10:20:53;1.90;;;1.47;;
30147;SDS011;16960;49.404;8.248;2023-04-25T10:23:22;1.40;;;1.20;;
30147;SDS011;16960;49.404;8.248;2023-04-25T10:25:50;1.63;;;1.53;;
30147;SDS011;16960;49.404;8.248;2023-04-25T10:28:18;2.10;;;1.63;;
30147;SDS011;16960;49.404;8.248;2023-04-25T10:31:00;1.80;;;1.60;;
30147;SDS011;16960;49.404;8.248;2023-04-25T10:33:34;1.90;;;1.80;;
30147;SDS011;16960;49.404;8.248;2023-04-25T10:36:09;2.13;;;1.50;;
30147;SDS011;16960;49.404;8.248;2023-04-25T10:38:37;2.03;;;1.77;;
30147;SDS011;16960;49.404;8.248;2023-04-25T10:41:05;2.10;;;1.90;;
30147;SDS011;16960;49.404;8.248;2023-04-25T10:43:34;2.30;;;1.70;;
30147;SDS011;16960;49.404;8.248;2023-04-25T10:46:13;2.43;;;1.40;;
30147;SDS011;16960;49.404;8.248;2023-04-25T10:48:45;2.87;;;1.73;;
30147;SDS011;16960;49.404;8.248;2023-04-25T10:51:18;2.70;;;2.00;;
30147;SDS011;16960;49.404;8.248;2023-04-25T10:53:47;2.13;;;1.70;;
30147;SDS011;16960;49.404;8.248;2023-04-25T10:56:23;1.80;;;1.70;;
30147;SDS011;16960;49.404;8.248;2023-04-25T10:58:55;1.77;;;1.57;;
30147;SDS011;16960;49.404;8.248;2023-04-25T11:01:37;2.97;;;1.70;;
30147;SDS011;16960;49.404;8.248;2023-04-25T11:04:05;2.00;;;1.80;;
30147;SDS011;16960;49.404;8.248;2023-04-25T11:06:36;3.77;;;1.47;;
30147;SDS011;16960;49.404;8.248;2023-04-25T11:09:13;2.07;;;1.77;;
30147;SDS011;16960;49.404;8.248;2023-04-25T11:11:40;2.40;;;1.77;;
30147;SDS011;16960;49.404;8.248;2023-04-25T11:14:07;1.50;;;1.40;;
30147;SDS011;16960;49.404;8.248;2023-04-25T11:16:34;1.67;;;1.57;;
30147;SDS011;16960;49.404;8.248;2023-04-25T11:19:02;2.93;;;1.60;;
30147;SDS011;16960;49.404;8.248;2023-04-25T11:21:30;2.20;;;2.00;;
30147;SDS011;16960;49.404;8.248;2023-04-25T11:23:57;1.50;;;1.40;;
30147;SDS011;16960;49.404;8.248;2023-04-25T11:26:26;1.93;;;1.83;;
30147;SDS011;16960;49.404;8.248;2023-04-25T11:28:56;1.43;;;1.33;;
30147;SDS011;16960;49.404;8.248;2023-04-25T11:31:25;1.70;;;1.40;;
30147;SDS011;16960;49.404;8.248;2023-04-25T11:33:52;3.00;;;1.60;;
30147;SDS011;16960;49.404;8.248;2023-04-25T11:36:22;1.80;;;1.50;;
30147;SDS011;16960;49.404;8.248;2023-04-25T11:38:49;1.63;;;1.50;;
30147;SDS011;16960;49.404;8.248;2023-04-25T11:41:16;2.20;;;1.50;;
30147;SDS011;16960;49.404;8.248;2023-04-25T11:43:44;2.93;;;1.53;;
30147;SDS011;16960;49.404;8.248;2023-04-25T11:46:10;1.63;;;1.30;;
30147;SDS011;16960;49.404;8.248;2023-04-25T11:48:38;1.80;;;1.70;;
30147;SDS011;16960;49.404;8.248;2023-04-25T11:51:05;1.67;;;1.50;;
30147;SDS011;16960;49.404;8.248;2023-04-25T11:53:33;1.63;;;1.43;;
30147;SDS011;16960;49.404;8.248;2023-04-25T11:56:01;1.30;;;1.20;;
30147;SDS011;16960;49.404;8.248;2023-04-25T12:01:26;1.50;;;1.40;;
30147;SDS011;16960;49.404;8.248;2023-04-25T12:03:55;1.30;;;1.20;;
30147;SDS011;16960;49.404;8.248;2023-04-25T12:06:25;1.80;;;1.70;;
30147;SDS011;16960;49.404;8.248;2023-04-25T12:09:01;2.00;;;1.80;;
30147;SDS011;16960;49.404;8.248;2023-04-25T12:11:29;1.97;;;1.77;;
30147;SDS011;16960;49.404;8.248;2023-04-25T12:14:01;1.60;;;1.50;;
30147;SDS011;16960;49.404;8.248;2023-04-25T12:16:30;1.60;;;1.30;;
30147;SDS011;16960;49.404;8.248;2023-04-25T12:19:06;1.60;;;1.50;;
30147;SDS011;16960;49.404;8.248;2023-04-25T12:21:33;1.63;;;1.53;;
30147;SDS011;16960;49.404;8.248;2023-04-25T12:24:10;1.83;;;1.47;;
30147;SDS011;16960;49.404;8.248;2023-04-25T12:26:51;2.87;;;1.50;;
30147;SDS011;16960;49.404;8.248;2023-04-25T12:29:20;1.83;;;1.47;;
30147;SDS011;16960;49.404;8.248;2023-04-25T12:31:48;1.97;;;1.40;;
30147;SDS011;16960;49.404;8.248;2023-04-25T12:34:16;2.00;;;1.33;;
30147;SDS011;16960;49.404;8.248;2023-04-25T12:36:43;2.23;;;1.83;;
30147;SDS011;16960;49.404;8.248;2023-04-25T12:39:15;1.73;;;1.60;;
30147;SDS011;16960;49.404;8.248;2023-04-25T12:41:43;1.67;;;1.57;;
30147;SDS011;16960;49.404;8.248;2023-04-25T12:44:10;2.97;;;1.97;;
30147;SDS011;16960;49.404;8.248;2023-04-25T12:46:37;2.40;;;1.37;;
30147;SDS011;16960;49.404;8.248;2023-04-25T12:49:05;1.20;;;1.13;;
30147;SDS011;16960;49.404;8.248;2023-04-25T12:51:33;1.80;;;1.50;;
30147;SDS011;16960;49.404;8.248;2023-04-25T12:54:00;1.47;;;1.10;;
30147;SDS011;16960;49.404;8.248;2023-04-25T12:56:29;1.70;;;1.50;;
30147;SDS011;16960;49.404;8.248;2023-04-25T12:58:56;1.40;;;1.30;;
30147;SDS011;16960;49.404;8.248;2023-04-25T13:01:23;2.23;;;1.33;;
30147;SDS011;16960;49.404;8.248;2023-04-25T13:03:51;1.40;;;1.30;;
30147;SDS011;16960;49.404;8.248;2023-04-25T13:06:19;2.20;;;1.50;;
30147;SDS011;16960;49.404;8.248;2023-04-25T13:08:47;1.50;;;1.40;;
30147;SDS011;16960;49.404;8.248;2023-04-25T13:11:14;1.77;;;1.40;;
30147;SDS011;16960;49.404;8.248;2023-04-25T13:13:43;1.53;;;1.40;;
30147;SDS011;16960;49.404;8.248;2023-04-25T13:16:10;1.60;;;1.50;;
30147;SDS011;16960;49.404;8.248;2023-04-25T13:18:39;2.97;;;1.43;;
30147;SDS011;16960;49.404;8.248;2023-04-25T13:21:06;1.53;;;1.43;;
30147;SDS011;16960;49.404;8.248;2023-04-25T13:23:33;1.43;;;1.33;;
30147;SDS011;16960;49.404;8.248;2023-04-25T13:26:00;1.40;;;1.30;;
30147;SDS011;16960;49.404;8.248;2023-04-25T13:28:27;1.40;;;1.30;;
30147;SDS011;16960;49.404;8.248;2023-04-25T13:30:56;1.97;;;1.77;;
30147;SDS011;16960;49.404;8.248;2023-04-25T13:33:23;4.03;;;1.80;;
30147;SDS011;16960;49.404;8.248;2023-04-25T13:35:50;1.40;;;1.30;;
30147;SDS011;16960;49.404;8.248;2023-04-25T13:38:21;2.03;;;1.37;;
30147;SDS011;16960;49.404;8.248;2023-04-25T13:40:49;1.47;;;1.37;;
30147;SDS011;16960;49.404;8.248;2023-04-25T13:43:17;1.57;;;1.47;;
30147;SDS011;16960;49.404;8.248;2023-04-25T13:45:45;1.40;;;1.30;;
30147;SDS011;16960;49.404;8.248;2023-04-25T13:48:14;1.50;;;1.30;;
30147;SDS011;16960;49.404;8.248;2023-04-25T13:50:41;2.17;;;1.70;;
30147;SDS011;16960;49.404;8.248;2023-04-25T13:53:08;2.10;;;1.60;;
30147;SDS011;16960;49.404;8.248;2023-04-25T13:55:35;1.90;;;1.40;;
30147;SDS011;16960;49.404;8.248;2023-04-25T13:58:03;1.60;;;1.40;;
30147;SDS011;16960;49.404;8.248;2023-04-25T14:00:33;1.40;;;1.30;;
30147;SDS011;16960;49.404;8.248;2023-04-25T14:03:03;3.67;;;1.70;;
30147;SDS011;16960;49.404;8.248;2023-04-25T14:05:33;1.43;;;1.33;;
30147;SDS011;16960;49.404;8.248;2023-04-25T14:08:05;2.93;;;1.60;;
30147;SDS011;16960;49.404;8.248;2023-04-25T14:10:32;1.50;;;1.40;;
30147;SDS011;16960;49.404;8.248;2023-04-25T14:12:59;1.80;;;1.70;;
30147;SDS011;16960;49.404;8.248;2023-04-25T14:15:28;2.80;;;1.53;;
30147;SDS011;16960;49.404;8.248;2023-04-25T14:17:55;1.60;;;1.50;;
30147;SDS011;16960;49.404;8.248;2023-04-25T14:20:22;1.20;;;1.10;;
30147;SDS011;16960;49.404;8.248;2023-04-25T14:22:51;1.60;;;1.50;;
30147;SDS011;16960;49.404;8.248;2023-04-25T14:25:19;1.50;;;1.40;;
30147;SDS011;16960;49.404;8.248;2023-04-25T14:27:46;2.03;;;1.80;;
30147;SDS011;16960;49.404;8.248;2023-04-25T14:30:15;2.13;;;1.83;;
30147;SDS011;16960;49.404;8.248;2023-04-25T14:32:42;1.63;;;1.53;;
30147;SDS011;16960;49.404;8.248;2023-04-25T14:35:10;3.73;;;1.30;;
30147;SDS011;16960;49.404;8.248;2023-04-25T14:37:37;1.70;;;1.60;;
30147;SDS011;16960;49.404;8.248;2023-04-25T14:40:06;1.60;;;1.33;;
30147;SDS011;16960;49.404;8.248;2023-04-25T14:42:35;1.80;;;1.50;;
30147;SDS011;16960;49.404;8.248;2023-04-25T14:45:03;1.37;;;1.20;;
30147;SDS011;16960;49.404;8.248;2023-04-25T14:47:31;4.93;;;1.30;;
30147;SDS011;16960;49.404;8.248;2023-04-25T14:49:58;1.50;;;1.27;;
30147;SDS011;16960;49.404;8.248;2023-04-25T14:52:29;2.40;;;1.80;;
30147;SDS011;16960;49.404;8.248;2023-04-25T14:54:56;2.27;;;1.60;;
30147;SDS011;16960;49.404;8.248;2023-04-25T14:57:26;1.10;;;1.00;;